createdAt,value
2017-11-08T00:00:15.354Z,8.70
2017-11-08T00:02:42.796Z,8.70
2017-11-08T00:05:10.223Z,8.70
2017-11-08T00:07:37.705Z,8.70
2017-11-08T00:10:05.157Z,8.80
2017-11-08T00:12:33.355Z,8.70
2017-11-08T00:15:13.550Z,8.70
2017-11-08T00:17:41.001Z,8.70
2017-11-08T00:20:08.495Z,8.70
2017-11-08T00:22:36.720Z,8.70
2017-11-08T00:25:04.165Z,8.70
2017-11-08T00:27:31.601Z,8.80
2017-11-08T00:29:59.080Z,8.80
2017-11-08T00:32:27.272Z,8.90
2017-11-08T00:34:55.481Z,8.90
2017-11-08T00:37:22.912Z,8.90
2017-11-08T00:39:50.365Z,8.90
2017-11-08T00:42:17.823Z,8.80
2017-11-08T00:44:45.237Z,8.80
2017-11-08T00:47:12.703Z,8.70
2017-11-08T00:49:40.168Z,8.80
2017-11-08T00:52:08.396Z,8.80
2017-11-08T00:54:35.917Z,8.70
2017-11-08T00:57:03.369Z,8.80
2017-11-08T00:59:30.821Z,8.70
2017-11-08T01:01:58.315Z,8.70
2017-11-08T01:04:25.752Z,8.70
2017-11-08T01:06:53.220Z,8.60
2017-11-08T01:09:20.675Z,8.70
2017-11-08T01:11:48.117Z,8.60
2017-11-08T01:14:15.564Z,8.60
2017-11-08T01:16:43.032Z,8.60
2017-11-08T01:19:10.489Z,8.60
2017-11-08T01:21:37.924Z,8.70
2017-11-08T01:24:05.369Z,8.70
2017-11-08T01:26:32.853Z,8.70
2017-11-08T01:29:00.304Z,8.80
2017-11-08T01:31:27.762Z,8.70
2017-11-08T01:33:55.200Z,8.70
2017-11-08T01:36:22.664Z,8.70
2017-11-08T01:38:50.101Z,8.70
2017-11-08T01:41:24.369Z,8.60
2017-11-08T01:43:54.249Z,8.60
2017-11-08T01:46:21.720Z,8.50
2017-11-08T01:48:49.180Z,8.60
2017-11-08T01:51:16.641Z,8.60
2017-11-08T01:53:44.073Z,8.60
2017-11-08T01:56:11.601Z,8.60
2017-11-08T01:58:39.070Z,8.50
2017-11-08T02:01:06.513Z,8.60
2017-11-08T02:03:33.961Z,8.60
2017-11-08T02:06:01.419Z,8.60
2017-11-08T02:08:28.858Z,8.60
2017-11-08T02:10:56.331Z,8.60
2017-11-08T02:13:23.787Z,8.60
2017-11-08T02:15:51.265Z,8.60
2017-11-08T02:18:21.528Z,8.60
2017-11-08T02:20:48.984Z,8.60
2017-11-08T02:23:16.424Z,8.60
2017-11-08T02:25:43.889Z,8.70
2017-11-08T02:28:11.325Z,8.60
2017-11-08T02:30:39.641Z,8.70
2017-11-08T02:33:07.102Z,8.70
2017-11-08T02:35:34.582Z,8.80
2017-11-08T02:38:02.044Z,8.80
2017-11-08T02:40:29.517Z,8.70
2017-11-08T02:42:56.959Z,8.70
2017-11-08T02:45:30.054Z,8.60
2017-11-08T02:47:57.500Z,8.60
2017-11-08T02:50:24.948Z,8.60
2017-11-08T02:52:52.403Z,8.60
2017-11-08T02:55:19.864Z,8.70
2017-11-08T02:57:47.314Z,8.70
2017-11-08T03:00:14.772Z,8.70
2017-11-08T03:02:47.951Z,8.60
2017-11-08T03:05:18.334Z,8.70
2017-11-08T03:07:45.785Z,8.60
2017-11-08T03:10:13.234Z,8.60
2017-11-08T03:12:40.667Z,8.60
2017-11-08T03:15:08.114Z,8.60
2017-11-08T03:17:35.574Z,8.60
2017-11-08T03:20:03.032Z,8.60
2017-11-08T03:22:30.522Z,8.70
2017-11-08T03:24:57.975Z,8.70
2017-11-08T03:27:25.424Z,8.70
2017-11-08T03:29:52.871Z,8.70
2017-11-08T03:32:26.258Z,8.70
2017-11-08T03:34:53.708Z,8.70
2017-11-08T03:37:21.153Z,8.70
2017-11-08T03:39:48.617Z,8.70
2017-11-08T03:42:16.078Z,8.70
2017-11-08T03:44:43.550Z,8.60
2017-11-08T03:47:11.049Z,8.70
2017-11-08T03:49:39.285Z,8.70
2017-11-08T03:52:06.750Z,8.70
2017-11-08T03:54:34.221Z,8.70
2017-11-08T03:57:01.675Z,8.70
2017-11-08T03:59:29.139Z,8.80
2017-11-08T04:01:56.591Z,8.80
2017-11-08T04:04:24.042Z,8.80
2017-11-08T04:06:51.477Z,8.90
2017-11-08T04:09:18.929Z,8.90
2017-11-08T04:11:46.392Z,8.90
2017-11-08T04:14:13.838Z,8.90
2017-11-08T04:16:41.291Z,9.00
2017-11-08T04:19:08.736Z,9.00
2017-11-08T04:21:36.173Z,9.00
2017-11-08T04:24:04.412Z,9.10
2017-11-08T04:26:31.875Z,9.10
2017-11-08T04:28:59.328Z,9.10
2017-11-08T04:31:26.790Z,9.10
2017-11-08T04:33:54.249Z,9.10
2017-11-08T04:36:21.712Z,9.10
2017-11-08T04:38:49.154Z,9.10
2017-11-08T04:41:16.624Z,9.20
2017-11-08T04:43:44.075Z,9.10
2017-11-08T04:46:11.551Z,9.10
2017-11-08T04:48:43.933Z,9.20
2017-11-08T04:51:12.164Z,9.20
2017-11-08T04:53:39.699Z,9.20
2017-11-08T04:56:07.156Z,9.20
2017-11-08T04:58:34.603Z,9.20
2017-11-08T05:01:02.049Z,9.20
2017-11-08T05:03:30.247Z,9.20
2017-11-08T05:05:57.733Z,9.10
2017-11-08T05:08:25.177Z,9.20
2017-11-08T05:10:52.621Z,9.20
2017-11-08T05:13:20.063Z,9.20
2017-11-08T05:15:47.506Z,9.20
2017-11-08T05:18:15.796Z,9.10
2017-11-08T05:20:43.228Z,9.10
2017-11-08T05:23:14.817Z,9.20
2017-11-08T05:25:42.246Z,9.10
2017-11-08T05:28:10.462Z,9.10
2017-11-08T05:30:37.912Z,9.10
2017-11-08T05:33:05.353Z,9.00
2017-11-08T05:35:32.845Z,9.00
2017-11-08T05:38:00.300Z,8.90
2017-11-08T05:40:27.749Z,8.90
2017-11-08T05:42:55.213Z,8.80
2017-11-08T05:45:22.746Z,8.80
2017-11-08T05:47:50.211Z,8.90
2017-11-08T05:50:17.745Z,8.90
2017-11-08T05:52:45.958Z,8.90
2017-11-08T05:55:13.419Z,8.80
2017-11-08T05:57:40.872Z,8.90
2017-11-08T06:00:08.327Z,8.90
2017-11-08T06:02:35.770Z,8.90
2017-11-08T06:05:03.416Z,8.90
2017-11-08T06:07:31.644Z,8.80
2017-11-08T06:09:59.074Z,8.80
2017-11-08T06:15:26.585Z,8.90
2017-11-08T06:17:54.036Z,8.90
2017-11-08T06:20:21.472Z,8.90
2017-11-08T06:22:49.013Z,8.90
2017-11-08T06:25:16.466Z,8.90
2017-11-08T06:27:43.900Z,8.80
2017-11-08T06:30:11.337Z,8.80
2017-11-08T06:32:38.805Z,8.90
2017-11-08T06:35:06.245Z,8.90
2017-11-08T06:37:33.709Z,8.80
2017-11-08T06:40:01.149Z,8.90
2017-11-08T06:42:28.602Z,8.90
2017-11-08T06:44:56.046Z,8.90
2017-11-08T06:47:23.510Z,8.90
2017-11-08T06:49:50.984Z,8.90
2017-11-08T06:52:18.426Z,8.70
2017-11-08T06:54:45.870Z,8.60
2017-11-08T06:57:13.316Z,8.70
2017-11-08T06:59:40.765Z,8.70
2017-11-08T07:02:08.201Z,8.70
2017-11-08T07:04:36.405Z,8.70
2017-11-08T07:07:03.842Z,8.60
2017-11-08T07:09:32.053Z,8.80
2017-11-08T07:11:59.513Z,8.70
2017-11-08T07:14:26.934Z,8.80
2017-11-08T07:17:00.007Z,8.80
2017-11-08T07:19:27.446Z,8.80
2017-11-08T07:22:07.773Z,8.90
2017-11-08T07:24:35.229Z,8.90
2017-11-08T07:27:02.683Z,8.90
2017-11-08T07:29:30.139Z,9.00
2017-11-08T07:31:57.574Z,8.90
2017-11-08T07:34:25.777Z,9.00
2017-11-08T07:36:53.229Z,9.00
2017-11-08T07:39:20.675Z,9.00
2017-11-08T07:41:48.123Z,9.00
2017-11-08T07:44:15.570Z,9.00
2017-11-08T07:46:43.812Z,9.00
2017-11-08T07:49:11.239Z,9.00
2017-11-08T07:51:38.670Z,9.00
2017-11-08T07:54:11.921Z,9.10
2017-11-08T07:56:39.381Z,9.00
2017-11-08T07:59:06.818Z,9.10
2017-11-08T08:01:34.278Z,8.90
2017-11-08T08:04:01.745Z,8.90
2017-11-08T08:06:29.186Z,8.90
2017-11-08T08:08:56.645Z,8.90
2017-11-08T08:11:36.705Z,9.00
2017-11-08T08:14:04.163Z,9.00
2017-11-08T08:16:31.611Z,9.00
2017-11-08T08:18:59.067Z,9.10
2017-11-08T08:21:26.496Z,9.10
2017-11-08T08:23:53.950Z,9.10
2017-11-08T08:26:21.391Z,9.10
2017-11-08T08:28:49.623Z,9.10
2017-11-08T08:31:17.067Z,9.10
2017-11-08T08:33:44.517Z,9.00
2017-11-08T08:36:12.961Z,9.00
2017-11-08T08:38:41.179Z,9.10
2017-11-08T08:41:08.629Z,9.10
2017-11-08T08:43:36.088Z,9.10
2017-11-08T08:46:03.522Z,9.20
2017-11-08T08:48:30.976Z,9.10
2017-11-08T08:50:59.182Z,9.20
2017-11-08T08:53:26.637Z,9.20
2017-11-08T08:55:54.097Z,9.10
2017-11-08T08:58:21.549Z,9.20
2017-11-08T09:00:49.017Z,9.20
2017-11-08T09:03:21.168Z,9.20
2017-11-08T09:05:48.649Z,9.30
2017-11-08T09:08:16.097Z,9.30
2017-11-08T09:10:43.557Z,9.30
2017-11-08T09:13:11.005Z,9.30
2017-11-08T09:15:38.455Z,9.30
2017-11-08T09:18:05.989Z,9.30
2017-11-08T09:20:33.441Z,9.30
2017-11-08T09:23:01.662Z,9.30
2017-11-08T09:25:30.898Z,9.30
2017-11-08T09:27:58.338Z,9.30
2017-11-08T09:30:25.794Z,9.40
2017-11-08T09:32:53.241Z,9.40
2017-11-08T09:35:23.453Z,9.40
2017-11-08T09:40:46.548Z,9.40
2017-11-08T09:43:19.822Z,9.40
2017-11-08T09:45:47.271Z,9.40
2017-11-08T09:48:14.745Z,9.30
2017-11-08T09:50:42.164Z,9.40
2017-11-08T09:53:17.161Z,9.40
2017-11-08T09:55:44.602Z,9.40
2017-11-08T09:58:12.050Z,9.40
2017-11-08T10:00:42.620Z,9.40
2017-11-08T10:03:10.834Z,9.40
2017-11-08T10:05:38.300Z,9.40
2017-11-08T10:08:05.730Z,9.40
2017-11-08T10:10:33.198Z,9.40
2017-11-08T10:13:06.262Z,9.40
2017-11-08T10:15:34.489Z,9.50
2017-11-08T10:18:02.034Z,9.50
2017-11-08T10:20:29.566Z,9.50
2017-11-08T10:23:00.837Z,9.50
2017-11-08T10:25:31.548Z,9.60
2017-11-08T10:27:59.821Z,9.60
2017-11-08T10:30:28.336Z,9.60
2017-11-08T10:32:55.874Z,9.60
2017-11-08T10:35:24.170Z,9.60
2017-11-08T10:37:51.718Z,9.60
2017-11-08T10:40:19.170Z,9.60
2017-11-08T10:42:46.573Z,9.60
2017-11-08T10:45:14.798Z,9.60
2017-11-08T10:47:42.259Z,9.60
2017-11-08T10:50:09.703Z,9.60
2017-11-08T10:52:40.084Z,9.70
2017-11-08T10:55:08.289Z,9.70
2017-11-08T10:57:35.766Z,9.70
2017-11-08T11:03:06.852Z,9.70
2017-11-08T11:05:34.316Z,9.70
2017-11-08T11:08:01.767Z,9.70
2017-11-08T11:10:29.249Z,9.80
2017-11-08T11:12:56.719Z,9.80
2017-11-08T11:15:24.925Z,9.80
2017-11-08T11:17:52.394Z,9.80
2017-11-08T11:20:19.850Z,9.80
2017-11-08T11:22:47.290Z,9.80
2017-11-08T11:25:16.674Z,9.80
2017-11-08T11:27:44.928Z,9.90
2017-11-08T11:30:12.385Z,9.80
2017-11-08T11:32:46.564Z,9.90
2017-11-08T11:35:14.007Z,9.90
2017-11-08T11:37:47.308Z,9.90
2017-11-08T11:40:14.806Z,10.00
2017-11-08T11:42:42.243Z,10.00
2017-11-08T11:45:09.699Z,10.00
2017-11-08T11:47:37.138Z,9.80
2017-11-08T11:50:04.684Z,9.90
2017-11-08T11:52:32.110Z,9.90
2017-11-08T11:55:00.335Z,9.70
2017-11-08T11:57:27.803Z,9.70
2017-11-08T11:59:55.292Z,9.70
2017-11-08T12:02:22.742Z,9.70
2017-11-08T12:04:50.215Z,9.70
2017-11-08T12:07:17.676Z,9.60
2017-11-08T12:09:45.126Z,9.60
2017-11-08T12:12:12.585Z,9.60
2017-11-08T12:14:40.031Z,9.50
2017-11-08T12:17:07.508Z,9.50
2017-11-08T12:19:37.870Z,9.50
2017-11-08T12:22:05.344Z,9.50
2017-11-08T12:24:32.778Z,9.60
2017-11-08T12:27:06.017Z,9.60
2017-11-08T12:29:36.059Z,9.70
2017-11-08T12:32:03.509Z,9.70
2017-11-08T12:34:30.948Z,9.70
2017-11-08T12:36:58.413Z,9.80
2017-11-08T12:39:33.551Z,9.90
2017-11-08T12:42:26.642Z,10.00
2017-11-08T12:45:09.066Z,10.00
2017-11-08T12:47:37.988Z,10.10
2017-11-08T12:50:05.452Z,10.00
2017-11-08T12:52:32.942Z,10.00
2017-11-08T12:55:05.011Z,10.10
2017-11-08T12:57:37.087Z,10.20
2017-11-08T13:00:04.588Z,10.20
2017-11-08T13:02:32.045Z,10.20
2017-11-08T13:04:59.494Z,10.20
2017-11-08T13:07:53.691Z,10.30
2017-11-08T13:10:30.676Z,10.30
2017-11-08T13:12:58.183Z,10.40
2017-11-08T13:15:26.406Z,10.40
2017-11-08T13:17:53.864Z,10.40
2017-11-08T13:20:21.334Z,10.50
2017-11-08T13:23:04.703Z,10.50
2017-11-08T13:25:33.168Z,10.50
2017-11-08T13:28:00.681Z,10.50
2017-11-08T13:30:32.073Z,10.60
2017-11-08T13:32:59.784Z,10.60
2017-11-08T13:35:27.234Z,10.60
2017-11-08T13:37:54.796Z,10.60
2017-11-08T13:40:22.268Z,10.60
2017-11-08T13:42:49.731Z,10.70
2017-11-08T13:45:17.173Z,10.60
2017-11-08T13:48:04.430Z,10.60
2017-11-08T13:50:31.888Z,10.60
2017-11-08T13:52:59.336Z,10.60
2017-11-08T13:55:26.791Z,10.60
2017-11-08T13:57:54.261Z,10.50
2017-11-08T14:00:21.747Z,10.50
2017-11-08T14:05:52.318Z,10.50
2017-11-08T14:08:19.782Z,10.40
2017-11-08T14:10:47.257Z,10.40
2017-11-08T14:13:28.427Z,10.40
2017-11-08T14:16:02.575Z,10.30
2017-11-08T14:18:30.031Z,10.30
2017-11-08T14:20:57.487Z,10.30
2017-11-08T14:23:24.944Z,10.30
2017-11-08T14:25:52.398Z,10.30
2017-11-08T14:28:25.049Z,10.20
2017-11-08T14:30:52.494Z,10.20
2017-11-08T14:33:19.930Z,10.20
2017-11-08T14:35:48.144Z,10.30
2017-11-08T14:38:15.604Z,10.30
2017-11-08T14:40:43.802Z,10.30
2017-11-08T14:43:11.248Z,10.30
2017-11-08T14:45:38.686Z,10.40
2017-11-08T14:48:06.138Z,10.40
2017-11-08T14:50:33.626Z,10.40
2017-11-08T14:53:06.604Z,10.40
2017-11-08T14:55:34.135Z,10.40
2017-11-08T14:58:02.349Z,10.40
2017-11-08T15:00:30.751Z,10.40
2017-11-08T15:02:58.206Z,10.40
2017-11-08T15:05:25.690Z,10.40
2017-11-08T15:07:53.168Z,10.30
2017-11-08T15:10:21.370Z,10.30
2017-11-08T15:12:48.823Z,10.30
2017-11-08T15:15:22.959Z,10.30
2017-11-08T15:17:50.448Z,10.30
2017-11-08T15:20:23.829Z,10.30
2017-11-08T15:22:51.285Z,10.30
2017-11-08T15:25:18.743Z,10.30
2017-11-08T15:27:46.188Z,10.30
2017-11-08T15:30:19.363Z,10.30
2017-11-08T15:32:46.820Z,10.30
2017-11-08T15:35:15.293Z,10.30
2017-11-08T15:37:42.767Z,10.30
2017-11-08T15:40:10.289Z,10.20
2017-11-08T15:42:38.534Z,10.20
2017-11-08T15:45:05.995Z,10.20
2017-11-08T15:47:48.182Z,10.20
2017-11-08T15:50:15.658Z,10.20
2017-11-08T15:52:43.094Z,10.20
2017-11-08T15:55:10.546Z,10.20
2017-11-08T15:57:38.021Z,10.20
2017-11-08T16:00:05.492Z,10.20
2017-11-08T16:02:32.916Z,10.20
2017-11-08T16:05:00.382Z,10.10
2017-11-08T16:07:27.830Z,10.10
2017-11-08T16:09:55.294Z,10.10
2017-11-08T16:12:22.759Z,10.10
2017-11-08T16:14:50.231Z,10.10
2017-11-08T16:17:17.722Z,10.10
2017-11-08T16:19:45.203Z,10.10
2017-11-08T16:22:13.786Z,10.00
2017-11-08T16:24:45.866Z,9.90
2017-11-08T16:27:27.869Z,9.90
2017-11-08T16:29:55.335Z,9.90
2017-11-08T16:32:25.384Z,9.90
2017-11-08T16:34:57.166Z,9.90
2017-11-08T16:37:30.048Z,9.80
2017-11-08T16:39:57.511Z,9.90
2017-11-08T16:42:24.943Z,9.90
2017-11-08T16:44:53.174Z,10.00
2017-11-08T16:47:23.968Z,9.90
2017-11-08T16:49:52.364Z,10.00
2017-11-08T16:52:19.816Z,9.90
2017-11-08T16:54:47.272Z,10.00
2017-11-08T16:57:14.747Z,10.00
2017-11-08T16:59:42.185Z,10.00
2017-11-08T17:02:09.654Z,10.00
2017-11-08T17:04:37.111Z,10.00
2017-11-08T17:07:04.542Z,10.00
2017-11-08T17:09:56.562Z,10.00
2017-11-08T17:12:24.819Z,10.00
2017-11-08T17:14:52.262Z,9.90
2017-11-08T17:17:19.714Z,10.00
2017-11-08T17:19:49.208Z,10.00
2017-11-08T17:22:16.648Z,10.00
2017-11-08T17:24:44.113Z,10.00
2017-11-08T17:27:11.593Z,9.90
2017-11-08T17:29:39.051Z,9.90
2017-11-08T17:32:14.933Z,10.00
2017-11-08T17:34:43.167Z,10.00
2017-11-08T17:37:10.612Z,10.00
2017-11-08T17:39:38.070Z,10.00
2017-11-08T17:42:05.510Z,10.00
2017-11-08T17:44:32.958Z,10.00
2017-11-08T17:47:00.396Z,10.00
2017-11-08T17:49:28.614Z,10.00
2017-11-08T17:51:56.050Z,10.00
2017-11-08T17:54:23.490Z,10.00
2017-11-08T17:56:51.747Z,10.00
2017-11-08T17:59:20.296Z,10.00
2017-11-08T18:01:47.747Z,10.00
2017-11-08T18:04:15.185Z,10.00
2017-11-08T18:06:42.624Z,10.00
2017-11-08T18:09:10.838Z,10.00
2017-11-08T18:11:38.286Z,10.00
2017-11-08T18:14:09.618Z,10.10
2017-11-08T18:16:39.003Z,10.10
2017-11-08T18:19:14.900Z,10.10
2017-11-08T18:21:43.359Z,10.00
2017-11-08T18:24:10.813Z,10.00
2017-11-08T18:26:38.425Z,10.10
2017-11-08T18:29:10.435Z,10.10
2017-11-08T18:31:37.886Z,10.00
2017-11-08T18:37:00.148Z,10.10
2017-11-08T18:39:27.614Z,10.00
2017-11-08T18:41:55.060Z,10.10
2017-11-08T18:44:22.523Z,10.10
2017-11-08T18:46:50.019Z,10.10
2017-11-08T18:49:17.474Z,10.00
2017-11-08T18:51:44.931Z,10.10
2017-11-08T18:54:12.385Z,10.00
2017-11-08T18:56:39.851Z,10.10
2017-11-08T18:59:13.778Z,10.10
2017-11-08T19:01:41.274Z,10.10
2017-11-08T19:04:08.756Z,10.10
2017-11-08T19:06:36.292Z,10.10
2017-11-08T19:09:03.779Z,10.10
2017-11-08T19:11:31.221Z,10.00
2017-11-08T19:14:03.506Z,10.10
2017-11-08T19:16:30.995Z,10.10
2017-11-08T19:19:04.734Z,10.10
2017-11-08T19:21:33.002Z,10.10
2017-11-08T19:24:01.265Z,10.00
2017-11-08T19:26:28.815Z,10.00
2017-11-08T19:29:00.208Z,10.00
2017-11-08T19:31:28.652Z,10.10
2017-11-08T19:33:56.107Z,10.10
2017-11-08T19:36:23.643Z,10.10
2017-11-08T19:38:51.137Z,10.10
2017-11-08T19:41:18.589Z,10.10
2017-11-08T19:43:46.050Z,10.00
2017-11-08T19:46:14.268Z,10.10
2017-11-08T19:48:41.707Z,10.00
2017-11-08T19:51:09.411Z,10.10
2017-11-08T19:53:36.844Z,10.10
2017-11-08T19:56:04.286Z,10.00
2017-11-08T19:58:31.727Z,10.00
2017-11-08T20:00:59.161Z,10.10
2017-11-08T20:03:28.686Z,10.10
2017-11-08T20:05:56.898Z,10.00
2017-11-08T20:08:25.450Z,10.00
2017-11-08T20:10:52.893Z,10.00
2017-11-08T20:13:20.322Z,10.10
2017-11-08T20:15:47.771Z,10.00
2017-11-08T20:18:15.211Z,10.00
2017-11-08T20:20:49.263Z,10.00
2017-11-08T20:23:23.885Z,10.00
2017-11-08T20:25:55.770Z,10.00
2017-11-08T20:28:24.011Z,9.90
2017-11-08T20:30:51.593Z,9.90
2017-11-08T20:33:19.051Z,9.90
2017-11-08T20:35:47.260Z,9.90
2017-11-08T20:38:14.697Z,9.90
2017-11-08T20:40:42.146Z,9.90
2017-11-08T20:43:10.354Z,9.90
2017-11-08T20:45:37.781Z,9.90
2017-11-08T20:48:06.050Z,9.90
2017-11-08T20:50:34.313Z,9.90
2017-11-08T20:53:01.751Z,9.80
2017-11-08T20:55:29.201Z,9.90
2017-11-08T20:57:56.670Z,9.80
2017-11-08T21:00:24.119Z,9.80
2017-11-08T21:02:51.636Z,9.80
2017-11-08T21:05:19.115Z,9.80
2017-11-08T21:07:46.547Z,9.80
2017-11-08T21:10:13.986Z,9.80
2017-11-08T21:12:42.192Z,9.80
2017-11-08T21:15:10.657Z,9.80
2017-11-08T21:17:38.095Z,9.80
2017-11-08T21:20:06.316Z,9.80
2017-11-08T21:22:33.773Z,9.80
2017-11-08T21:25:01.219Z,9.80
2017-11-08T21:27:28.666Z,9.80
2017-11-08T21:29:56.098Z,9.80
2017-11-08T21:32:24.314Z,9.80
2017-11-08T21:34:51.743Z,9.80
2017-11-08T21:37:19.963Z,9.90
2017-11-08T21:39:49.425Z,9.80
2017-11-08T21:42:16.869Z,9.80
2017-11-08T21:44:45.085Z,9.80
2017-11-08T21:47:12.516Z,9.80
2017-11-08T21:49:40.718Z,9.80
2017-11-08T21:52:08.159Z,9.80
2017-11-08T21:54:35.604Z,9.70
2017-11-08T21:57:03.807Z,9.80
2017-11-08T21:59:31.261Z,9.80
2017-11-08T22:01:59.013Z,9.80
2017-11-08T22:04:26.455Z,9.80
2017-11-08T22:06:54.647Z,9.80
2017-11-08T22:09:22.087Z,9.80
2017-11-08T22:11:50.325Z,9.80
2017-11-08T22:14:17.766Z,9.80
2017-11-08T22:16:45.207Z,9.80
2017-11-08T22:19:12.653Z,9.80
2017-11-08T22:21:40.082Z,9.80
2017-11-08T22:24:07.523Z,9.80
2017-11-08T22:26:34.995Z,9.70
2017-11-08T22:29:03.212Z,9.70
2017-11-08T22:31:30.771Z,9.70
2017-11-08T22:33:58.239Z,9.70
2017-11-08T22:36:25.685Z,9.70
2017-11-08T22:38:53.126Z,9.70
2017-11-08T22:41:20.605Z,9.70
2017-11-08T22:43:48.068Z,9.70
2017-11-08T22:46:15.502Z,9.70
2017-11-08T22:48:42.939Z,9.70
2017-11-08T22:51:11.169Z,9.70
2017-11-08T22:53:38.607Z,9.70
2017-11-08T22:56:06.046Z,9.80
2017-11-08T22:58:33.487Z,9.70
2017-11-08T23:01:00.921Z,9.80
2017-11-08T23:03:28.362Z,9.80
2017-11-08T23:05:58.935Z,9.80
2017-11-08T23:08:27.131Z,9.80
2017-11-08T23:10:54.579Z,9.80
2017-11-08T23:13:22.006Z,9.80
2017-11-08T23:15:50.209Z,9.80
2017-11-08T23:18:17.977Z,9.80
2017-11-08T23:20:45.446Z,9.70
2017-11-08T23:23:12.868Z,9.70
2017-11-08T23:25:41.099Z,9.80
2017-11-08T23:28:08.549Z,9.70
2017-11-08T23:30:35.992Z,9.70
2017-11-08T23:33:03.431Z,9.70
2017-11-08T23:35:30.883Z,9.70
2017-11-08T23:37:59.081Z,9.60
2017-11-08T23:40:26.534Z,9.60
2017-11-08T23:43:00.461Z,9.60
2017-11-08T23:45:27.914Z,9.70
2017-11-08T23:47:55.350Z,9.70
2017-11-08T23:50:22.898Z,9.70
2017-11-08T23:52:50.326Z,9.70
2017-11-08T23:55:19.658Z,9.70
2017-11-08T23:57:47.098Z,9.70
